createdAt,value
2016-11-17T00:00:55.617Z,88.23
2016-11-17T00:02:04.226Z,88.27
2016-11-17T00:03:13.506Z,87.79
2016-11-17T00:04:22.109Z,88.93
2016-11-17T00:05:31.036Z,89.27
2016-11-17T00:06:39.969Z,88.65
2016-11-17T00:07:49.234Z,88.75
2016-11-17T00:08:58.319Z,88.84
2016-11-17T00:10:07.249Z,89.18
2016-11-17T00:11:16.177Z,89.89
2016-11-17T00:12:25.103Z,89.27
2016-11-17T00:13:34.359Z,89.13
2016-11-17T00:14:43.015Z,89.61
2016-11-17T00:15:51.624Z,89.13
2016-11-17T00:17:00.871Z,89.41
2016-11-17T00:18:09.477Z,89.27
2016-11-17T00:19:18.402Z,89.7
2016-11-17T00:20:27.363Z,89.22
2016-11-17T00:21:35.964Z,89.7
2016-11-17T00:22:45.243Z,89.22
2016-11-17T00:23:55.131Z,88.84
2016-11-17T00:25:04.059Z,89.41
2016-11-17T00:26:13.460Z,89.51
2016-11-17T00:27:22.067Z,89.32
2016-11-17T00:28:30.997Z,89.03
2016-11-17T00:29:39.922Z,89.13
2016-11-17T00:30:48.528Z,88.84
2016-11-17T00:31:58.175Z,89.13
2016-11-17T00:33:07.437Z,89.79
2016-11-17T00:34:16.689Z,88.93
2016-11-17T00:35:25.612Z,88.93
2016-11-17T00:36:34.227Z,89.51
2016-11-17T00:37:43.286Z,89.84
2016-11-17T00:38:51.897Z,89.27
2016-11-17T00:40:00.822Z,89.51
2016-11-17T00:41:09.752Z,89.18
2016-11-17T00:42:18.680Z,90.08
2016-11-17T00:43:27.996Z,89.7
2016-11-17T00:44:36.600Z,89.94
2016-11-17T00:45:45.528Z,89.56
2016-11-17T00:46:54.161Z,89.51
2016-11-17T00:48:02.768Z,90.08
2016-11-17T00:49:11.419Z,89.7
2016-11-17T00:50:20.058Z,89.51
2016-11-17T00:51:28.696Z,89.32
2016-11-17T00:52:37.304Z,90.13
2016-11-17T00:53:45.909Z,89.84
2016-11-17T00:54:56.208Z,90.13
2016-11-17T00:56:05.796Z,89.84
2016-11-17T00:57:14.404Z,89.47
2016-11-17T00:58:23.009Z,89.47
2016-11-17T00:59:32.256Z,89.32
2016-11-17T01:00:41.654Z,89.47
2016-11-17T01:01:50.258Z,88.79
2016-11-17T01:02:59.183Z,88.65
2016-11-17T01:04:08.469Z,88.46
2016-11-17T01:05:17.094Z,89.56
2016-11-17T01:06:26.001Z,88.42
2016-11-17T01:07:34.930Z,88.93
2016-11-17T01:08:44.183Z,88.99
2016-11-17T01:09:53.112Z,89.47
2016-11-17T01:11:01.719Z,89.65
2016-11-17T01:12:11.640Z,89.84
2016-11-17T01:13:20.888Z,90.03
2016-11-17T01:14:29.814Z,89.47
2016-11-17T01:15:39.061Z,89.37
2016-11-17T01:16:47.663Z,90.03
2016-11-17T01:17:57.261Z,89.75
2016-11-17T01:19:06.194Z,90.7
2016-11-17T01:20:15.439Z,91.32
2016-11-17T01:21:24.686Z,91.8
2016-11-17T01:22:33.291Z,91.8
2016-11-17T01:23:42.622Z,91.89
2016-11-17T01:24:51.229Z,91.61
2016-11-17T01:26:00.157Z,92.46
2016-11-17T01:27:08.761Z,92.56
2016-11-17T01:28:17.367Z,92.46
2016-11-17T01:29:26.752Z,91.61
2016-11-17T01:30:35.683Z,92.46
2016-11-17T01:31:44.934Z,91.61
2016-11-17T01:32:53.538Z,91.61
2016-11-17T01:34:02.790Z,91.89
2016-11-17T01:35:12.084Z,92.56
2016-11-17T01:36:21.011Z,92.36
2016-11-17T01:37:29.934Z,91.32
2016-11-17T01:38:38.890Z,90.94
2016-11-17T01:39:47.814Z,90.66
2016-11-17T01:40:57.119Z,91.51
2016-11-17T01:42:06.048Z,91.32
2016-11-17T01:43:14.973Z,90.8
2016-11-17T01:44:23.900Z,90.22
2016-11-17T01:45:33.147Z,90.56
2016-11-17T01:46:42.202Z,89.8
2016-11-17T01:47:51.444Z,89.56
2016-11-17T01:49:00.728Z,89.42
2016-11-17T01:50:09.687Z,90.89
2016-11-17T01:51:18.295Z,91.42
2016-11-17T01:52:27.250Z,91.99
2016-11-17T01:53:36.495Z,92.56
2016-11-17T01:54:45.424Z,93.41
2016-11-17T01:55:54.356Z,92.41
2016-11-17T01:57:03.287Z,92.36
2016-11-17T01:58:12.263Z,91.51
2016-11-17T01:59:20.868Z,91.7
2016-11-17T02:00:29.799Z,92.18
2016-11-17T02:01:38.403Z,92.84
2016-11-17T02:02:47.012Z,91.8
2016-11-17T02:03:55.669Z,92.56
2016-11-17T02:05:04.919Z,93.18
2016-11-17T02:06:14.170Z,92.84
2016-11-17T02:07:23.102Z,92.41
2016-11-17T02:08:33.001Z,92.08
2016-11-17T02:09:42.016Z,92.99
2016-11-17T02:10:50.617Z,92.8
2016-11-17T02:11:59.546Z,93.55
2016-11-17T02:13:08.797Z,93.75
2016-11-17T02:14:17.410Z,93.65
2016-11-17T02:15:26.414Z,94.03
2016-11-17T02:16:35.663Z,93.18
2016-11-17T02:17:44.591Z,92.41
2016-11-17T02:18:53.520Z,93.08
2016-11-17T02:20:02.771Z,93.75
2016-11-17T02:21:11.757Z,93.46
2016-11-17T02:22:20.361Z,93.65
2016-11-17T02:23:29.290Z,93.18
2016-11-17T02:24:39.180Z,93.18
2016-11-17T02:25:51.137Z,93.46
2016-11-17T02:27:00.416Z,92.99
2016-11-17T02:28:09.344Z,93.18
2016-11-17T02:29:17.949Z,94.13
2016-11-17T02:30:27.518Z,93.84
2016-11-17T02:31:36.127Z,93.84
2016-11-17T02:32:45.428Z,93.41
2016-11-17T02:33:54.674Z,93.18
2016-11-17T02:35:03.276Z,93.27
2016-11-17T02:36:11.879Z,93.08
2016-11-17T02:37:20.482Z,93.18
2016-11-17T02:38:29.766Z,93.94
2016-11-17T02:39:39.015Z,93.84
2016-11-17T02:40:47.617Z,93.75
2016-11-17T02:41:56.223Z,93.41
2016-11-17T02:43:05.148Z,92.41
2016-11-17T02:44:14.123Z,93.08
2016-11-17T02:45:23.369Z,93.18
2016-11-17T02:46:32.302Z,93.27
2016-11-17T02:47:40.906Z,93.46
2016-11-17T02:48:50.151Z,92.75
2016-11-17T02:50:00.072Z,92.61
2016-11-17T02:51:09.321Z,92.41
2016-11-17T02:52:18.276Z,92.61
2016-11-17T02:53:27.526Z,92.22
2016-11-17T02:54:36.448Z,92.99
2016-11-17T02:55:45.676Z,92.61
2016-11-17T02:56:54.605Z,91.66
2016-11-17T02:58:03.862Z,91.85
2016-11-17T02:59:12.486Z,92.61
2016-11-17T03:00:21.420Z,93.65
2016-11-17T03:01:30.472Z,93.7
2016-11-17T03:02:39.398Z,93.51
2016-11-17T03:03:47.993Z,93.99
2016-11-17T03:04:56.924Z,93.6
2016-11-17T03:06:06.827Z,93.32
2016-11-17T03:07:16.113Z,93.13
2016-11-17T03:08:24.718Z,93.7
2016-11-17T03:09:33.649Z,93.79
2016-11-17T03:10:42.603Z,92.94
2016-11-17T03:11:51.221Z,93.04
2016-11-17T03:13:00.514Z,93.89
2016-11-17T03:14:09.446Z,93.23
2016-11-17T03:15:18.382Z,93.23
2016-11-17T03:16:26.990Z,93.32
2016-11-17T03:17:36.568Z,92.37
2016-11-17T03:18:45.527Z,92.75
2016-11-17T03:19:54.150Z,93.79
2016-11-17T03:21:03.415Z,93.04
2016-11-17T03:22:12.022Z,92.56
2016-11-17T03:23:20.632Z,92.85
2016-11-17T03:24:29.626Z,92.27
2016-11-17T03:25:38.887Z,92.08
2016-11-17T03:26:47.495Z,91.89
2016-11-17T03:27:56.436Z,91.52
2016-11-17T03:29:05.709Z,91.42
2016-11-17T03:30:14.847Z,93.13
2016-11-17T03:31:23.779Z,93.75
2016-11-17T03:32:32.722Z,93.79
2016-11-17T03:33:41.992Z,93.7
2016-11-17T03:34:50.618Z,92.56
2016-11-17T03:35:59.940Z,93.04
2016-11-17T03:37:08.571Z,93.51
2016-11-17T03:38:17.834Z,93.65
2016-11-17T03:39:26.768Z,93.84
2016-11-17T03:40:36.021Z,93.94
2016-11-17T03:41:45.686Z,93.7
2016-11-17T03:42:54.314Z,93.79
2016-11-17T03:44:02.945Z,93.79
2016-11-17T03:45:11.564Z,93.94
2016-11-17T03:46:20.509Z,93.08
2016-11-17T03:47:29.575Z,92.94
2016-11-17T03:48:38.505Z,93.7
2016-11-17T03:49:47.124Z,93.18
2016-11-17T03:50:55.726Z,93.37
2016-11-17T03:52:05.304Z,92.56
2016-11-17T03:53:13.961Z,92.42
2016-11-17T03:54:22.902Z,92.18
2016-11-17T03:55:32.167Z,92.18
2016-11-17T03:56:40.793Z,93.04
2016-11-17T03:57:50.052Z,93.65
2016-11-17T03:58:59.033Z,92.99
2016-11-17T04:00:07.649Z,92.99
2016-11-17T04:01:16.584Z,93.94
2016-11-17T04:02:25.530Z,93.65
2016-11-17T04:03:34.795Z,93.94
2016-11-17T04:04:44.206Z,93.46
2016-11-17T04:05:53.468Z,93.18
2016-11-17T04:07:02.733Z,93.08
2016-11-17T04:08:11.391Z,93.6
2016-11-17T04:09:20.335Z,93.65
2016-11-17T04:10:28.992Z,92.9
2016-11-17T04:11:38.302Z,92.75
2016-11-17T04:12:47.242Z,93.18
2016-11-17T04:13:56.497Z,93.27
2016-11-17T04:15:05.448Z,92.85
2016-11-17T04:16:14.747Z,91.94
2016-11-17T04:17:23.684Z,92.75
2016-11-17T04:18:32.625Z,92.51
2016-11-17T04:19:41.252Z,93.89
2016-11-17T04:20:50.513Z,93.18
2016-11-17T04:21:59.817Z,93.99
2016-11-17T04:23:08.430Z,92.85
2016-11-17T04:24:17.370Z,92.18
2016-11-17T04:25:25.981Z,93.04
2016-11-17T04:26:35.243Z,93.18
2016-11-17T04:27:44.225Z,93.75
2016-11-17T04:28:53.165Z,93.46
2016-11-17T04:30:02.132Z,94.13
2016-11-17T04:31:10.755Z,94.32
2016-11-17T04:32:19.684Z,93.94
2016-11-17T04:33:28.749Z,93.56
2016-11-17T04:34:38.650Z,94.89
2016-11-17T04:35:47.934Z,93.75
2016-11-17T04:36:57.196Z,93.94
2016-11-17T04:38:05.813Z,93.56
2016-11-17T04:39:14.813Z,93.94
2016-11-17T04:40:23.437Z,94.42
2016-11-17T04:41:32.692Z,94.7
2016-11-17T04:42:41.293Z,94.13
2016-11-17T04:43:50.563Z,93.94
2016-11-17T04:44:59.230Z,93.94
2016-11-17T04:46:08.174Z,94.23
2016-11-17T04:47:17.123Z,94.42
2016-11-17T04:48:26.050Z,93.41
2016-11-17T04:49:34.992Z,93.41
2016-11-17T04:50:43.716Z,94.18
2016-11-17T04:51:52.657Z,94.7
2016-11-17T04:53:01.636Z,94.42
2016-11-17T04:54:10.581Z,94.6
2016-11-17T04:55:19.203Z,94.56
2016-11-17T04:56:28.435Z,94.32
2016-11-17T04:57:37.759Z,94.46
2016-11-17T04:58:46.389Z,93.7
2016-11-17T04:59:55.649Z,92.94
2016-11-17T05:01:04.265Z,93.6
2016-11-17T05:02:12.934Z,93.94
2016-11-17T05:03:21.543Z,94.03
2016-11-17T05:04:30.476Z,94.18
2016-11-17T05:05:39.424Z,93.13
2016-11-17T05:06:48.040Z,93.79
2016-11-17T05:07:56.710Z,93.89
2016-11-17T05:09:06.314Z,93.99
2016-11-17T05:10:15.895Z,93.79
2016-11-17T05:11:24.535Z,93.79
2016-11-17T05:12:33.477Z,93.04
2016-11-17T05:13:42.450Z,92.75
2016-11-17T05:14:51.392Z,92.56
2016-11-17T05:16:00.327Z,93.13
2016-11-17T05:17:09.571Z,93.79
2016-11-17T05:18:18.840Z,93.6
2016-11-17T05:19:27.897Z,94.74
2016-11-17T05:20:36.837Z,93.51
2016-11-17T05:21:45.777Z,93.7
2016-11-17T05:22:55.052Z,94.18
2016-11-17T05:24:03.989Z,93.89
2016-11-17T05:25:13.054Z,92.94
2016-11-17T05:26:21.675Z,92.94
2016-11-17T05:27:30.631Z,92.94
2016-11-17T05:28:39.560Z,92.94
2016-11-17T05:29:48.508Z,93.32
2016-11-17T05:30:57.276Z,93.79
2016-11-17T05:32:06.216Z,93.51
2016-11-17T05:33:14.829Z,93.99
2016-11-17T05:34:24.092Z,93.23
2016-11-17T05:35:33.052Z,93.32
2016-11-17T05:36:42.132Z,93.04
2016-11-17T05:37:51.722Z,92.94
2016-11-17T05:39:00.669Z,93.6
2016-11-17T05:40:09.590Z,93.23
2016-11-17T05:41:18.841Z,93.7
2016-11-17T05:42:28.480Z,93.13
2016-11-17T05:43:37.403Z,92.85
2016-11-17T05:44:46.016Z,93.04
2016-11-17T05:45:54.952Z,93.79
2016-11-17T05:47:04.541Z,94.08
2016-11-17T05:48:13.631Z,93.99
2016-11-17T05:49:22.249Z,93.32
2016-11-17T05:50:31.504Z,93.32
2016-11-17T05:51:40.773Z,92.75
2016-11-17T05:52:49.706Z,92.41
2016-11-17T05:53:59.308Z,92.7
2016-11-17T05:55:07.924Z,92.75
2016-11-17T05:56:17.175Z,92.37
2016-11-17T05:57:26.148Z,93.32
2016-11-17T05:58:35.404Z,93.23
2016-11-17T05:59:44.195Z,92.56
2016-11-17T06:00:53.465Z,93.13
2016-11-17T06:02:02.087Z,93.6
2016-11-17T06:03:11.588Z,94.18
2016-11-17T06:04:20.193Z,93.99
2016-11-17T06:05:29.836Z,93.99
2016-11-17T06:06:38.452Z,94.18
2016-11-17T06:07:47.413Z,94.74
2016-11-17T06:08:56.683Z,94.46
2016-11-17T06:10:05.620Z,94.18
2016-11-17T06:11:15.565Z,94.08
2016-11-17T06:12:25.145Z,95.03
2016-11-17T06:13:34.082Z,95.12
2016-11-17T06:14:42.681Z,94.98
2016-11-17T06:15:51.932Z,93.99
2016-11-17T06:17:00.902Z,93.6
2016-11-17T06:18:09.552Z,93.99
2016-11-17T06:19:18.505Z,93.7
2016-11-17T06:20:27.823Z,94.74
2016-11-17T06:21:36.444Z,94.98
2016-11-17T06:22:45.105Z,94.74
2016-11-17T06:23:53.723Z,95.32
2016-11-17T06:25:02.343Z,95.84
2016-11-17T06:26:11.282Z,95.03
2016-11-17T06:27:20.548Z,94.79
2016-11-17T06:28:29.203Z,95.51
2016-11-17T06:29:38.509Z,95.46
2016-11-17T06:30:47.444Z,95.89
2016-11-17T06:31:56.386Z,97.07
2016-11-17T06:33:05.007Z,96.41
2016-11-17T06:34:13.670Z,95.75
2016-11-17T06:35:22.941Z,96.03
2016-11-17T06:36:32.201Z,95.03
2016-11-17T06:37:41.149Z,95.12
2016-11-17T06:38:49.803Z,95.89
2016-11-17T06:39:58.792Z,94.84
2016-11-17T06:41:08.053Z,94.37
2016-11-17T06:42:16.991Z,95.51
2016-11-17T06:43:25.606Z,94.56
2016-11-17T06:44:34.215Z,94.84
2016-11-17T06:45:43.270Z,95.51
2016-11-17T06:46:52.848Z,95.32
2016-11-17T06:48:01.777Z,95.51
2016-11-17T06:49:11.056Z,95.22
2016-11-17T06:50:19.677Z,95.03
2016-11-17T06:51:28.723Z,94.08
2016-11-17T06:52:37.987Z,94.56
2016-11-17T06:53:46.935Z,93.7
2016-11-17T06:54:55.885Z,93.89
2016-11-17T06:56:05.134Z,93.7
2016-11-17T06:57:14.853Z,94.27
2016-11-17T06:58:23.800Z,94.84
2016-11-17T06:59:32.430Z,93.79
2016-11-17T07:00:41.397Z,93.6
2016-11-17T07:01:50.672Z,93.51
2016-11-17T07:02:59.339Z,94.18
2016-11-17T07:04:07.948Z,93.6
2016-11-17T07:05:17.220Z,92.22
2016-11-17T07:06:26.501Z,92.8
2016-11-17T07:07:35.758Z,93.84
2016-11-17T07:08:44.416Z,93.7
2016-11-17T07:09:53.663Z,94.46
2016-11-17T07:11:02.935Z,94.93
2016-11-17T07:12:12.203Z,94.84
2016-11-17T07:13:20.817Z,94.08
2016-11-17T07:14:29.500Z,93.37
2016-11-17T07:15:38.774Z,94.03
2016-11-17T07:16:47.384Z,93.99
2016-11-17T07:17:55.994Z,94.22
2016-11-17T07:19:05.257Z,93.75
2016-11-17T07:20:14.300Z,94.03
2016-11-17T07:21:23.231Z,93.75
2016-11-17T07:22:31.855Z,93.27
2016-11-17T07:23:40.791Z,92.41
2016-11-17T07:24:49.406Z,92.84
2016-11-17T07:25:59.032Z,93.08
2016-11-17T07:27:08.296Z,93.94
2016-11-17T07:28:17.590Z,93.84
2016-11-17T07:29:26.837Z,94.03
2016-11-17T07:30:36.096Z,93.65
2016-11-17T07:31:45.082Z,92.99
2016-11-17T07:32:53.690Z,92.18
2016-11-17T07:34:02.299Z,93.23
2016-11-17T07:35:11.557Z,93.08
2016-11-17T07:36:20.498Z,93.18
2016-11-17T07:37:29.746Z,92.32
2016-11-17T07:38:38.356Z,92.32
2016-11-17T07:39:47.284Z,93.18
2016-11-17T07:40:56.542Z,93.84
2016-11-17T07:42:05.809Z,94.03
2016-11-17T07:43:15.092Z,93.84
2016-11-17T07:44:23.694Z,94.22
2016-11-17T07:45:32.305Z,93.75
2016-11-17T07:46:41.246Z,92.7
2016-11-17T07:47:50.187Z,92.41
2016-11-17T07:48:59.548Z,92.8
2016-11-17T07:50:08.488Z,93.18
2016-11-17T07:51:17.102Z,92.13
2016-11-17T07:52:26.367Z,92.13
2016-11-17T07:53:35.325Z,93.18
2016-11-17T07:54:44.560Z,92.22
2016-11-17T07:55:53.192Z,91.47
2016-11-17T07:57:02.148Z,91.66
2016-11-17T07:58:11.412Z,92.99
2016-11-17T07:59:20.659Z,92.8
2016-11-17T08:00:29.982Z,91.56
2016-11-17T08:01:39.255Z,90.8
2016-11-17T08:02:48.194Z,90.8
2016-11-17T08:03:57.172Z,91.8
2016-11-17T08:05:06.439Z,92.32
2016-11-17T08:06:15.107Z,91.66
2016-11-17T08:07:24.710Z,90.23
2016-11-17T08:08:33.691Z,91.03
2016-11-17T08:09:43.271Z,92.03
2016-11-17T08:10:51.887Z,91.18
2016-11-17T08:12:00.848Z,92.13
2016-11-17T08:13:10.108Z,91.85
2016-11-17T08:14:19.057Z,91.47
2016-11-17T08:15:27.700Z,91.75
2016-11-17T08:16:36.319Z,90.84
2016-11-17T08:17:45.524Z,90.42
2016-11-17T08:18:54.779Z,91.47
2016-11-17T08:20:03.740Z,91.94
2016-11-17T08:21:12.366Z,91.75
2016-11-17T08:22:21.946Z,91.56
2016-11-17T08:23:31.568Z,90.7
2016-11-17T08:24:40.506Z,90.23
2016-11-17T08:25:49.773Z,90.75
2016-11-17T08:26:59.029Z,90.04
2016-11-17T08:28:07.961Z,90.08
2016-11-17T08:29:16.933Z,90.75
2016-11-17T08:30:25.870Z,90.89
2016-11-17T08:31:35.155Z,90.75
2016-11-17T08:32:44.413Z,90.08
2016-11-17T08:33:53.376Z,89.99
2016-11-17T08:35:02.438Z,90.28
2016-11-17T08:36:11.057Z,90.56
2016-11-17T08:37:19.676Z,90.61
2016-11-17T08:38:28.300Z,89.42
2016-11-17T08:39:37.250Z,89.61
2016-11-17T08:40:46.543Z,89.61
2016-11-17T08:41:55.154Z,89.32
2016-11-17T08:43:03.785Z,89.32
2016-11-17T08:44:12.409Z,89.99
2016-11-17T08:45:21.353Z,90.37
2016-11-17T08:46:30.995Z,89.42
2016-11-17T08:47:39.950Z,89.04
2016-11-17T08:48:48.909Z,89.8
2016-11-17T08:49:57.534Z,89.23
2016-11-17T08:51:06.472Z,89.42
2016-11-17T08:52:15.888Z,89.04
2016-11-17T08:53:24.823Z,89.23
2016-11-17T08:54:34.101Z,89.42
2016-11-17T08:55:43.396Z,89.7
2016-11-17T08:56:52.663Z,89.8
2016-11-17T08:58:01.335Z,89.23
2016-11-17T08:59:09.948Z,89.32
2016-11-17T09:00:18.887Z,88.85
2016-11-17T09:01:27.855Z,88.85
2016-11-17T09:02:36.825Z,89.27
2016-11-17T09:03:46.226Z,89.61
2016-11-17T09:04:54.849Z,89.61
2016-11-17T09:06:03.798Z,89.99
2016-11-17T09:07:12.417Z,90.47
2016-11-17T09:08:22.009Z,89.14
2016-11-17T09:09:31.309Z,89.14
2016-11-17T09:10:39.970Z,88.56
2016-11-17T09:11:48.938Z,87.52
2016-11-17T09:12:58.220Z,88.32
2016-11-17T09:14:07.177Z,87.23
2016-11-17T09:15:15.831Z,87.37
2016-11-17T09:16:24.454Z,88.04
2016-11-17T09:17:33.392Z,88.66
2016-11-17T09:18:42.025Z,87.85
2016-11-17T09:19:50.665Z,86.7
2016-11-17T09:20:59.699Z,87.18
2016-11-17T09:22:08.324Z,86.9
2016-11-17T09:23:16.960Z,87.46
2016-11-17T09:24:25.896Z,87.99
2016-11-17T09:25:34.849Z,87.56
2016-11-17T09:26:44.261Z,87.04
2016-11-17T09:27:53.216Z,86.42
2016-11-17T09:29:02.820Z,87.27
2016-11-17T09:30:12.125Z,87.27
2016-11-17T09:31:21.067Z,87.27
2016-11-17T09:32:30.044Z,87.23
2016-11-17T09:33:38.696Z,87.65
2016-11-17T09:34:47.676Z,87.18
2016-11-17T09:35:56.295Z,87.52
2016-11-17T09:37:05.308Z,86.66
2016-11-17T09:38:14.700Z,86.04
2016-11-17T09:39:23.353Z,85.18
2016-11-17T09:40:32.309Z,85.56
2016-11-17T09:41:40.940Z,85.75
2016-11-17T09:42:49.566Z,85.94
2016-11-17T09:43:59.294Z,85.66
2016-11-17T09:45:08.253Z,86.04
2016-11-17T09:46:17.599Z,85.94
2016-11-17T09:47:27.183Z,85.8
2016-11-17T09:48:36.130Z,85.94
2016-11-17T09:49:45.104Z,85.66
2016-11-17T09:50:54.043Z,85.66
2016-11-17T09:52:03.296Z,84.23
2016-11-17T09:53:12.222Z,85.03
2016-11-17T09:54:20.891Z,84.8
2016-11-17T09:55:30.320Z,83.61
2016-11-17T09:56:39.304Z,84.56
2016-11-17T09:57:48.263Z,85.56
2016-11-17T09:58:57.259Z,85.85
2016-11-17T10:00:05.867Z,85.37
2016-11-17T10:01:14.869Z,84.42
2016-11-17T10:02:23.535Z,83.85
2016-11-17T10:03:32.172Z,82.84
2016-11-17T10:04:40.787Z,82.56
2016-11-17T10:05:49.728Z,82.56
2016-11-17T10:06:59.363Z,82.56
2016-11-17T10:08:08.659Z,82.8
2016-11-17T10:09:17.285Z,83.22
2016-11-17T10:10:26.550Z,82.27
2016-11-17T10:11:35.812Z,82.84
2016-11-17T10:12:45.559Z,83.18
2016-11-17T10:13:54.510Z,82.65
2016-11-17T10:15:04.122Z,82.51
2016-11-17T10:16:12.746Z,82.56
2016-11-17T10:17:21.706Z,81.76
2016-11-17T10:18:30.385Z,81.89
2016-11-17T10:19:39.030Z,82.08
2016-11-17T10:20:48.284Z,81.51
2016-11-17T10:21:57.230Z,81.89
2016-11-17T10:23:06.819Z,82.46
2016-11-17T10:24:16.202Z,81.89
2016-11-17T10:25:25.150Z,80.55
2016-11-17T10:26:33.754Z,80.46
2016-11-17T10:27:42.703Z,81.98
2016-11-17T10:28:51.314Z,83.7
2016-11-17T10:29:59.988Z,82.23
2016-11-17T10:31:09.264Z,80.84
2016-11-17T10:32:18.212Z,80.84
2016-11-17T10:33:26.853Z,81.23
2016-11-17T10:34:35.796Z,80.75
2016-11-17T10:35:44.782Z,83.32
2016-11-17T10:36:54.055Z,83.32
2016-11-17T10:38:02.986Z,84.33
2016-11-17T10:39:11.642Z,82.42
2016-11-17T10:40:21.235Z,82.46
2016-11-17T10:41:30.558Z,82.27
2016-11-17T10:42:39.188Z,84.13
2016-11-17T10:43:48.456Z,83.47
2016-11-17T10:44:57.389Z,82.75
2016-11-17T10:46:06.329Z,82.46
2016-11-17T10:47:15.001Z,82.56
2016-11-17T10:48:24.586Z,82.18
2016-11-17T10:49:33.520Z,81.7
2016-11-17T10:50:42.470Z,83.32
2016-11-17T10:51:51.418Z,83.41
2016-11-17T10:53:00.507Z,82.46
2016-11-17T10:54:09.474Z,82.27
2016-11-17T10:55:18.111Z,81.41
2016-11-17T10:56:27.070Z,81.7
2016-11-17T10:57:36.032Z,82.08
2016-11-17T10:58:45.337Z,82.18
2016-11-17T10:59:54.611Z,82.27
2016-11-17T11:01:03.865Z,81.98
2016-11-17T11:02:13.159Z,82.27
2016-11-17T11:03:22.113Z,82.84
2016-11-17T11:04:30.800Z,82.18
2016-11-17T11:05:40.073Z,83.22
2016-11-17T11:06:49.020Z,83.41
2016-11-17T11:07:57.976Z,83.22
2016-11-17T11:09:07.567Z,82.18
2016-11-17T11:10:16.845Z,80.79
2016-11-17T11:11:25.802Z,80.5
2016-11-17T11:12:34.746Z,80.88
2016-11-17T11:13:43.376Z,80.5
2016-11-17T11:14:53.006Z,81.46
2016-11-17T11:16:02.976Z,80.79
2016-11-17T11:17:11.922Z,82.21
2016-11-17T11:18:21.216Z,82.08
2016-11-17T11:19:30.503Z,81.36
2016-11-17T11:20:39.122Z,81.23
2016-11-17T11:21:48.212Z,80.6
2016-11-17T11:22:57.820Z,80.6
2016-11-17T11:24:06.441Z,81.26
2016-11-17T11:25:15.063Z,81.65
2016-11-17T11:26:24.012Z,80.98
2016-11-17T11:27:33.011Z,80.31
2016-11-17T11:28:41.992Z,80.41
2016-11-17T11:29:50.947Z,79.74
2016-11-17T11:31:00.546Z,79.11
2016-11-17T11:32:09.174Z,80.35
2016-11-17T11:33:18.467Z,80.22
2016-11-17T11:34:28.068Z,81.55
2016-11-17T11:35:37.021Z,80.98
2016-11-17T11:36:45.960Z,79.78
2016-11-17T11:37:54.915Z,79.46
2016-11-17T11:39:04.200Z,79.68
2016-11-17T11:40:13.470Z,79.4
2016-11-17T11:41:22.417Z,79.55
2016-11-17T11:42:31.364Z,79.46
2016-11-17T11:43:40.323Z,79.64
2016-11-17T11:44:49.945Z,78.78
2016-11-17T11:45:59.198Z,77.55
2016-11-17T11:47:07.827Z,77.17
2016-11-17T11:48:16.848Z,78.06
2016-11-17T11:49:26.014Z,75.93
2016-11-17T11:50:35.027Z,76.88
2016-11-17T11:51:43.683Z,75.74
2016-11-17T11:52:52.634Z,73.74
2016-11-17T11:54:01.915Z,74.31
2016-11-17T11:55:10.873Z,74.06
2016-11-17T11:56:19.844Z,74.44
2016-11-17T11:57:29.105Z,73.74
2016-11-17T11:58:38.130Z,73.87
2016-11-17T11:59:47.988Z,72.88
2016-11-17T12:00:57.837Z,74.02
2016-11-17T12:02:07.279Z,73.21
2016-11-17T12:03:16.230Z,73.87
2016-11-17T12:04:25.182Z,73.68
2016-11-17T12:05:33.828Z,73.83
2016-11-17T12:06:42.789Z,73.93
2016-11-17T12:07:52.086Z,73.11
2016-11-17T12:09:01.037Z,73.49
2016-11-17T12:10:09.651Z,73.11
2016-11-17T12:11:18.586Z,72.53
2016-11-17T12:12:27.534Z,74.16
2016-11-17T12:13:37.182Z,75.16
2016-11-17T12:14:46.766Z,75.55
2016-11-17T12:15:55.714Z,74.5
2016-11-17T12:17:04.349Z,74.44
2016-11-17T12:18:13.294Z,74.92
2016-11-17T12:19:22.584Z,75.78
2016-11-17T12:20:31.207Z,76.44
2016-11-17T12:21:40.167Z,75.68
2016-11-17T12:22:49.117Z,74.92
2016-11-17T12:23:58.071Z,76.06
2016-11-17T12:25:07.079Z,76.64
2016-11-17T12:26:15.699Z,76.82
2016-11-17T12:27:24.319Z,77.64
2016-11-17T12:28:32.937Z,77.83
2016-11-17T12:29:41.883Z,77.26
2016-11-17T12:30:50.896Z,78.78
2016-11-17T12:31:59.842Z,78.41
2016-11-17T12:33:08.776Z,77.36
2016-11-17T12:34:17.390Z,77.74
2016-11-17T12:35:26.013Z,77.45
2016-11-17T12:36:35.306Z,77.83
2016-11-17T12:37:44.252Z,78.88
2016-11-17T12:38:53.528Z,78.31
2016-11-17T12:40:02.796Z,75.87
2016-11-17T12:41:12.078Z,76.44
2016-11-17T12:42:21.399Z,77.55
2016-11-17T12:43:30.657Z,79.55
2016-11-17T12:44:39.270Z,78.22
2016-11-17T12:45:47.884Z,76.98
2016-11-17T12:46:57.498Z,76.79
2016-11-17T12:48:06.201Z,76.35
2016-11-17T12:49:14.850Z,75.2
2016-11-17T12:50:23.806Z,75.3
2016-11-17T12:51:32.776Z,74.82
2016-11-17T12:52:42.050Z,75.05
2016-11-17T12:53:51.418Z,74.1
2016-11-17T12:55:00.379Z,73.81
2016-11-17T12:56:09.654Z,74.29
2016-11-17T12:57:18.935Z,73.72
2016-11-17T12:58:27.554Z,73.43
2016-11-17T12:59:37.199Z,73.72
2016-11-17T13:00:46.784Z,72.96
2016-11-17T13:01:55.734Z,73.24
2016-11-17T13:03:05.001Z,73.62
2016-11-17T13:04:13.632Z,74.29
2016-11-17T13:05:22.624Z,75.68
2016-11-17T13:06:31.901Z,76.06
2016-11-17T13:07:40.516Z,75.4
2016-11-17T13:08:49.461Z,75.87
2016-11-17T13:09:58.405Z,76.35
2016-11-17T13:11:07.120Z,77.69
2016-11-17T13:12:16.069Z,76.59
2016-11-17T13:13:25.330Z,75.78
2016-11-17T13:14:33.941Z,75.2
2016-11-17T13:15:42.889Z,74.63
2016-11-17T13:16:51.861Z,74.48
2016-11-17T13:18:00.818Z,75.2
2016-11-17T13:19:10.074Z,74.73
2016-11-17T13:20:19.021Z,74.25
2016-11-17T13:21:27.992Z,74.57
2016-11-17T13:22:37.319Z,74.92
2016-11-17T13:23:45.951Z,75.11
2016-11-17T13:24:55.246Z,75.4
2016-11-17T13:26:04.230Z,75.96
2016-11-17T13:27:13.505Z,75.4
2016-11-17T13:28:22.840Z,74.63
2016-11-17T13:29:31.463Z,75.87
2016-11-17T13:30:40.715Z,76.88
2016-11-17T13:31:49.668Z,76.21
2016-11-17T13:32:58.293Z,75.84
2016-11-17T13:34:07.279Z,75.11
2016-11-17T13:35:16.225Z,75.01
2016-11-17T13:36:24.853Z,74.92
2016-11-17T13:37:33.518Z,74.21
2016-11-17T13:38:42.138Z,75.07
2016-11-17T13:39:51.291Z,74.6
2016-11-17T13:40:59.912Z,73.55
2016-11-17T13:42:08.851Z,71.96
2016-11-17T13:43:18.136Z,72.76
2016-11-17T13:44:26.749Z,72.06
2016-11-17T13:45:35.421Z,72.82
2016-11-17T13:46:44.724Z,72.53
2016-11-17T13:47:53.665Z,71.3
2016-11-17T13:49:02.947Z,71.11
2016-11-17T13:50:11.572Z,70.82
2016-11-17T13:51:21.134Z,71.3
2016-11-17T13:52:30.090Z,70.72
2016-11-17T13:53:39.700Z,70.72
2016-11-17T13:54:48.321Z,70.25
2016-11-17T13:55:56.934Z,69.68
2016-11-17T13:57:06.275Z,69.96
2016-11-17T13:58:15.545Z,70.06
2016-11-17T13:59:24.181Z,70.72
2016-11-17T14:00:33.191Z,70.92
2016-11-17T14:01:42.172Z,70.06
2016-11-17T14:02:51.816Z,69.93
2016-11-17T14:04:00.763Z,70.5
2016-11-17T14:05:09.711Z,70.88
2016-11-17T14:06:18.326Z,70.02
2016-11-17T14:07:27.602Z,71.07
2016-11-17T14:08:36.678Z,71.17
2016-11-17T14:09:45.616Z,71.93
2016-11-17T14:10:55.203Z,72.21
2016-11-17T14:12:04.467Z,71.64
2016-11-17T14:13:13.465Z,72.31
2016-11-17T14:14:22.489Z,72.31
2016-11-17T14:15:31.440Z,71.93
2016-11-17T14:16:40.373Z,71.83
2016-11-17T14:17:49.315Z,72.12
2016-11-17T14:18:58.597Z,72.25
2016-11-17T14:20:07.598Z,72.21
2016-11-17T14:21:16.595Z,73.55
2016-11-17T14:22:25.544Z,73.36
2016-11-17T14:23:34.809Z,73.36
2016-11-17T14:24:44.421Z,73.55
2016-11-17T14:25:53.460Z,73.36
2016-11-17T14:27:02.746Z,73.65
2016-11-17T14:28:11.375Z,73.55
2016-11-17T14:29:20.661Z,73.17
2016-11-17T14:30:29.611Z,74.21
2016-11-17T14:31:38.706Z,74.69
2016-11-17T14:32:47.634Z,74.75
2016-11-17T14:33:56.564Z,74.69
2016-11-17T14:35:05.197Z,75.26
2016-11-17T14:36:14.475Z,75.23
2016-11-17T14:37:23.763Z,75.23
2016-11-17T14:38:32.694Z,75.51
2016-11-17T14:39:41.314Z,75.32
2016-11-17T14:40:50.292Z,75.07
2016-11-17T14:41:59.256Z,75.64
2016-11-17T14:43:08.664Z,75.79
2016-11-17T14:44:17.624Z,75.04
2016-11-17T14:45:27.198Z,75.32
2016-11-17T14:46:35.817Z,74.98
2016-11-17T14:47:44.753Z,74.75
2016-11-17T14:48:54.496Z,75.51
2016-11-17T14:50:03.807Z,75.79
2016-11-17T14:51:13.076Z,75.99
2016-11-17T14:52:22.334Z,75.7